sensor_id;sensor_type;location;lat;lon;timestamp;P1;durP1;ratioP1;P2;durP2;ratioP2
16113;SDS011;8161;-33.910;151.156;2022-08-19T00:01:44;2.10;;;0.70;;
16113;SDS011;8161;-33.910;151.156;2022-08-19T00:04:13;1.10;;;0.60;;
16113;SDS011;8161;-33.910;151.156;2022-08-19T00:06:43;3.13;;;0.80;;
16113;SDS011;8161;-33.910;151.156;2022-08-19T00:09:13;2.58;;;0.65;;
16113;SDS011;8161;-33.910;151.156;2022-08-19T00:11:42;1.67;;;0.60;;
16113;SDS011;8161;-33.910;151.156;2022-08-19T00:14:11;1.60;;;0.82;;
16113;SDS011;8161;-33.910;151.156;2022-08-19T00:16:41;3.25;;;0.88;;
16113;SDS011;8161;-33.910;151.156;2022-08-19T00:19:10;3.58;;;0.80;;
16113;SDS011;8161;-33.910;151.156;2022-08-19T00:21:38;2.55;;;1.10;;
16113;SDS011;8161;-33.910;151.156;2022-08-19T00:24:06;3.33;;;0.88;;
16113;SDS011;8161;-33.910;151.156;2022-08-19T00:26:35;2.15;;;0.88;;
16113;SDS011;8161;-33.910;151.156;2022-08-19T00:29:04;1.52;;;0.77;;
16113;SDS011;8161;-33.910;151.156;2022-08-19T00:31:33;4.55;;;0.90;;
16113;SDS011;8161;-33.910;151.156;2022-08-19T00:34:01;3.40;;;1.00;;
16113;SDS011;8161;-33.910;151.156;2022-08-19T00:36:29;1.00;;;0.80;;
16113;SDS011;8161;-33.910;151.156;2022-08-19T00:38:58;5.63;;;0.90;;
16113;SDS011;8161;-33.910;151.156;2022-08-19T00:41:26;2.33;;;0.70;;
16113;SDS011;8161;-33.910;151.156;2022-08-19T00:43:58;2.25;;;0.60;;
16113;SDS011;8161;-33.910;151.156;2022-08-19T00:46:40;1.92;;;0.93;;
16113;SDS011;8161;-33.910;151.156;2022-08-19T00:49:11;1.83;;;1.00;;
16113;SDS011;8161;-33.910;151.156;2022-08-19T00:51:45;2.17;;;0.60;;
16113;SDS011;8161;-33.910;151.156;2022-08-19T00:54:16;1.52;;;0.57;;
16113;SDS011;8161;-33.910;151.156;2022-08-19T00:56:44;1.95;;;0.70;;
16113;SDS011;8161;-33.910;151.156;2022-08-19T00:59:12;1.85;;;0.70;;
16113;SDS011;8161;-33.910;151.156;2022-08-19T01:01:40;2.97;;;1.08;;
16113;SDS011;8161;-33.910;151.156;2022-08-19T01:04:09;8.55;;;0.90;;
16113;SDS011;8161;-33.910;151.156;2022-08-19T01:06:38;1.10;;;0.68;;
16113;SDS011;8161;-33.910;151.156;2022-08-19T01:09:07;2.25;;;0.85;;
16113;SDS011;8161;-33.910;151.156;2022-08-19T01:11:35;2.88;;;0.80;;
16113;SDS011;8161;-33.910;151.156;2022-08-19T01:14:07;3.65;;;0.75;;
16113;SDS011;8161;-33.910;151.156;2022-08-19T01:16:35;4.30;;;0.80;;
16113;SDS011;8161;-33.910;151.156;2022-08-19T01:19:13;1.67;;;0.80;;
16113;SDS011;8161;-33.910;151.156;2022-08-19T01:21:52;1.40;;;0.95;;
16113;SDS011;8161;-33.910;151.156;2022-08-19T01:24:26;2.60;;;0.80;;
16113;SDS011;8161;-33.910;151.156;2022-08-19T01:26:54;1.33;;;0.80;;
16113;SDS011;8161;-33.910;151.156;2022-08-19T01:29:21;4.10;;;1.10;;
16113;SDS011;8161;-33.910;151.156;2022-08-19T01:31:48;1.65;;;0.70;;
16113;SDS011;8161;-33.910;151.156;2022-08-19T01:34:18;1.10;;;0.80;;
16113;SDS011;8161;-33.910;151.156;2022-08-19T01:36:46;1.55;;;0.70;;
16113;SDS011;8161;-33.910;151.156;2022-08-19T01:39:22;2.47;;;0.57;;
16113;SDS011;8161;-33.910;151.156;2022-08-19T01:41:51;1.23;;;0.73;;
16113;SDS011;8161;-33.910;151.156;2022-08-19T01:44:19;3.50;;;0.70;;
16113;SDS011;8161;-33.910;151.156;2022-08-19T01:46:49;1.67;;;0.70;;
16113;SDS011;8161;-33.910;151.156;2022-08-19T01:49:18;1.27;;;0.77;;
16113;SDS011;8161;-33.910;151.156;2022-08-19T01:51:47;2.08;;;0.50;;
16113;SDS011;8161;-33.910;151.156;2022-08-19T01:54:16;2.10;;;0.73;;
16113;SDS011;8161;-33.910;151.156;2022-08-19T01:56:44;1.25;;;0.73;;
16113;SDS011;8161;-33.910;151.156;2022-08-19T01:59:12;0.98;;;0.50;;
16113;SDS011;8161;-33.910;151.156;2022-08-19T02:01:42;0.70;;;0.40;;
16113;SDS011;8161;-33.910;151.156;2022-08-19T02:04:10;0.30;;;0.20;;
16113;SDS011;8161;-33.910;151.156;2022-08-19T02:06:37;2.55;;;0.60;;
16113;SDS011;8161;-33.910;151.156;2022-08-19T02:09:06;0.85;;;0.50;;
16113;SDS011;8161;-33.910;151.156;2022-08-19T02:11:34;0.93;;;0.50;;
16113;SDS011;8161;-33.910;151.156;2022-08-19T02:14:04;3.22;;;0.50;;
16113;SDS011;8161;-33.910;151.156;2022-08-19T02:16:34;1.00;;;0.50;;
16113;SDS011;8161;-33.910;151.156;2022-08-19T02:19:02;2.10;;;0.93;;
16113;SDS011;8161;-33.910;151.156;2022-08-19T02:21:30;1.58;;;0.70;;
16113;SDS011;8161;-33.910;151.156;2022-08-19T02:23:58;1.80;;;0.63;;
16113;SDS011;8161;-33.910;151.156;2022-08-19T02:26:26;2.10;;;0.60;;
16113;SDS011;8161;-33.910;151.156;2022-08-19T02:28:53;1.45;;;0.55;;
16113;SDS011;8161;-33.910;151.156;2022-08-19T02:31:22;0.50;;;0.35;;
16113;SDS011;8161;-33.910;151.156;2022-08-19T02:33:51;1.33;;;0.52;;
16113;SDS011;8161;-33.910;151.156;2022-08-19T02:36:18;1.13;;;0.70;;
16113;SDS011;8161;-33.910;151.156;2022-08-19T02:38:46;0.88;;;0.50;;
16113;SDS011;8161;-33.910;151.156;2022-08-19T02:41:16;0.77;;;0.60;;
16113;SDS011;8161;-33.910;151.156;2022-08-19T02:43:47;2.05;;;0.47;;
16113;SDS011;8161;-33.910;151.156;2022-08-19T02:48:57;0.60;;;0.40;;
16113;SDS011;8161;-33.910;151.156;2022-08-19T02:51:31;0.70;;;0.50;;
16113;SDS011;8161;-33.910;151.156;2022-08-19T02:54:01;1.80;;;0.90;;
16113;SDS011;8161;-33.910;151.156;2022-08-19T02:56:29;2.50;;;0.40;;
16113;SDS011;8161;-33.910;151.156;2022-08-19T02:58:58;1.13;;;0.30;;
16113;SDS011;8161;-33.910;151.156;2022-08-19T03:01:30;1.15;;;0.68;;
16113;SDS011;8161;-33.910;151.156;2022-08-19T03:04:02;1.17;;;0.60;;
16113;SDS011;8161;-33.910;151.156;2022-08-19T03:06:31;2.30;;;0.40;;
16113;SDS011;8161;-33.910;151.156;2022-08-19T03:09:02;1.45;;;0.50;;
16113;SDS011;8161;-33.910;151.156;2022-08-19T03:11:31;1.85;;;0.98;;
16113;SDS011;8161;-33.910;151.156;2022-08-19T03:13:59;0.52;;;0.22;;
16113;SDS011;8161;-33.910;151.156;2022-08-19T03:16:28;1.23;;;0.50;;
16113;SDS011;8161;-33.910;151.156;2022-08-19T03:18:58;0.35;;;0.30;;
16113;SDS011;8161;-33.910;151.156;2022-08-19T03:21:27;0.90;;;0.65;;
16113;SDS011;8161;-33.910;151.156;2022-08-19T03:23:57;0.95;;;0.40;;
16113;SDS011;8161;-33.910;151.156;2022-08-19T03:26:26;1.08;;;0.38;;
16113;SDS011;8161;-33.910;151.156;2022-08-19T03:28:55;0.90;;;0.20;;
16113;SDS011;8161;-33.910;151.156;2022-08-19T03:31:22;0.43;;;0.30;;
16113;SDS011;8161;-33.910;151.156;2022-08-19T03:33:51;0.30;;;0.30;;
16113;SDS011;8161;-33.910;151.156;2022-08-19T03:36:20;0.75;;;0.20;;
16113;SDS011;8161;-33.910;151.156;2022-08-19T03:38:51;2.42;;;0.45;;
16113;SDS011;8161;-33.910;151.156;2022-08-19T03:41:24;2.97;;;1.13;;
16113;SDS011;8161;-33.910;151.156;2022-08-19T03:43:57;1.17;;;0.57;;
16113;SDS011;8161;-33.910;151.156;2022-08-19T03:46:26;0.70;;;0.50;;
16113;SDS011;8161;-33.910;151.156;2022-08-19T03:48:56;1.05;;;0.50;;
16113;SDS011;8161;-33.910;151.156;2022-08-19T03:51:26;1.10;;;0.50;;
16113;SDS011;8161;-33.910;151.156;2022-08-19T03:53:57;0.57;;;0.30;;
16113;SDS011;8161;-33.910;151.156;2022-08-19T03:56:26;1.58;;;0.47;;
16113;SDS011;8161;-33.910;151.156;2022-08-19T03:58:57;0.55;;;0.30;;
16113;SDS011;8161;-33.910;151.156;2022-08-19T04:01:26;2.53;;;0.35;;
16113;SDS011;8161;-33.910;151.156;2022-08-19T04:03:55;1.05;;;0.65;;
16113;SDS011;8161;-33.910;151.156;2022-08-19T04:06:24;3.03;;;0.80;;
16113;SDS011;8161;-33.910;151.156;2022-08-19T04:08:54;4.32;;;0.60;;
16113;SDS011;8161;-33.910;151.156;2022-08-19T04:11:27;1.33;;;0.50;;
16113;SDS011;8161;-33.910;151.156;2022-08-19T04:13:57;4.38;;;0.75;;
16113;SDS011;8161;-33.910;151.156;2022-08-19T04:16:26;0.47;;;0.38;;
16113;SDS011;8161;-33.910;151.156;2022-08-19T04:18:59;0.63;;;0.40;;
16113;SDS011;8161;-33.910;151.156;2022-08-19T04:21:28;0.88;;;0.47;;
16113;SDS011;8161;-33.910;151.156;2022-08-19T04:23:56;0.63;;;0.43;;
16113;SDS011;8161;-33.910;151.156;2022-08-19T04:26:25;1.15;;;0.90;;
16113;SDS011;8161;-33.910;151.156;2022-08-19T04:28:54;2.80;;;0.50;;
16113;SDS011;8161;-33.910;151.156;2022-08-19T04:31:22;1.35;;;0.68;;
16113;SDS011;8161;-33.910;151.156;2022-08-19T04:33:56;1.17;;;0.47;;
16113;SDS011;8161;-33.910;151.156;2022-08-19T04:36:30;1.48;;;0.57;;
16113;SDS011;8161;-33.910;151.156;2022-08-19T04:39:00;0.30;;;0.30;;
16113;SDS011;8161;-33.910;151.156;2022-08-19T04:41:48;0.40;;;0.32;;
16113;SDS011;8161;-33.910;151.156;2022-08-19T04:44:30;0.47;;;0.40;;
16113;SDS011;8161;-33.910;151.156;2022-08-19T04:46:59;1.98;;;0.30;;
16113;SDS011;8161;-33.910;151.156;2022-08-19T04:49:31;0.70;;;0.30;;
16113;SDS011;8161;-33.910;151.156;2022-08-19T04:51:58;0.50;;;0.30;;
16113;SDS011;8161;-33.910;151.156;2022-08-19T04:54:26;0.38;;;0.30;;
16113;SDS011;8161;-33.910;151.156;2022-08-19T04:56:54;1.55;;;0.40;;
16113;SDS011;8161;-33.910;151.156;2022-08-19T04:59:21;1.60;;;0.68;;
16113;SDS011;8161;-33.910;151.156;2022-08-19T05:01:48;0.80;;;0.50;;
16113;SDS011;8161;-33.910;151.156;2022-08-19T05:04:19;0.82;;;0.50;;
16113;SDS011;8161;-33.910;151.156;2022-08-19T05:06:47;0.43;;;0.38;;
16113;SDS011;8161;-33.910;151.156;2022-08-19T05:09:17;3.15;;;0.50;;
16113;SDS011;8161;-33.910;151.156;2022-08-19T05:11:45;3.28;;;0.50;;
16113;SDS011;8161;-33.910;151.156;2022-08-19T05:14:13;0.93;;;0.52;;
16113;SDS011;8161;-33.910;151.156;2022-08-19T05:16:40;0.32;;;0.30;;
16113;SDS011;8161;-33.910;151.156;2022-08-19T05:19:08;1.70;;;0.40;;
16113;SDS011;8161;-33.910;151.156;2022-08-19T05:21:49;0.68;;;0.30;;
16113;SDS011;8161;-33.910;151.156;2022-08-19T05:24:30;0.57;;;0.40;;
16113;SDS011;8161;-33.910;151.156;2022-08-19T05:26:59;2.05;;;0.68;;
16113;SDS011;8161;-33.910;151.156;2022-08-19T05:29:28;4.60;;;1.20;;
16113;SDS011;8161;-33.910;151.156;2022-08-19T05:32:00;2.13;;;0.88;;
16113;SDS011;8161;-33.910;151.156;2022-08-19T05:34:30;0.77;;;0.50;;
16113;SDS011;8161;-33.910;151.156;2022-08-19T05:36:58;1.60;;;0.50;;
16113;SDS011;8161;-33.910;151.156;2022-08-19T05:39:28;1.48;;;0.50;;
16113;SDS011;8161;-33.910;151.156;2022-08-19T05:41:57;1.63;;;0.60;;
16113;SDS011;8161;-33.910;151.156;2022-08-19T05:44:31;0.70;;;0.60;;
16113;SDS011;8161;-33.910;151.156;2022-08-19T05:47:01;1.58;;;0.40;;
16113;SDS011;8161;-33.910;151.156;2022-08-19T05:49:30;1.00;;;0.50;;
16113;SDS011;8161;-33.910;151.156;2022-08-19T05:52:00;3.30;;;0.47;;
16113;SDS011;8161;-33.910;151.156;2022-08-19T05:54:32;0.45;;;0.40;;
16113;SDS011;8161;-33.910;151.156;2022-08-19T05:57:01;0.22;;;0.22;;
16113;SDS011;8161;-33.910;151.156;2022-08-19T05:59:29;1.85;;;0.45;;
16113;SDS011;8161;-33.910;151.156;2022-08-19T06:01:56;2.95;;;0.90;;
16113;SDS011;8161;-33.910;151.156;2022-08-19T06:04:23;1.98;;;0.52;;
16113;SDS011;8161;-33.910;151.156;2022-08-19T06:06:52;0.47;;;0.30;;
16113;SDS011;8161;-33.910;151.156;2022-08-19T06:09:22;0.77;;;0.30;;
16113;SDS011;8161;-33.910;151.156;2022-08-19T06:11:50;1.35;;;0.30;;
16113;SDS011;8161;-33.910;151.156;2022-08-19T06:14:22;0.25;;;0.22;;
16113;SDS011;8161;-33.910;151.156;2022-08-19T06:16:52;0.50;;;0.30;;
16113;SDS011;8161;-33.910;151.156;2022-08-19T06:19:20;0.60;;;0.40;;
16113;SDS011;8161;-33.910;151.156;2022-08-19T06:21:50;0.90;;;0.40;;
16113;SDS011;8161;-33.910;151.156;2022-08-19T06:24:20;0.20;;;0.20;;
16113;SDS011;8161;-33.910;151.156;2022-08-19T06:26:50;0.45;;;0.43;;
16113;SDS011;8161;-33.910;151.156;2022-08-19T06:29:22;2.63;;;0.73;;
16113;SDS011;8161;-33.910;151.156;2022-08-19T06:31:55;3.90;;;1.05;;
16113;SDS011;8161;-33.910;151.156;2022-08-19T06:34:26;10.77;;;1.70;;
16113;SDS011;8161;-33.910;151.156;2022-08-19T06:36:59;9.23;;;1.83;;
16113;SDS011;8161;-33.910;151.156;2022-08-19T06:39:29;8.77;;;1.63;;
16113;SDS011;8161;-33.910;151.156;2022-08-19T06:41:59;5.07;;;1.23;;
16113;SDS011;8161;-33.910;151.156;2022-08-19T06:44:29;9.35;;;1.20;;
16113;SDS011;8161;-33.910;151.156;2022-08-19T06:47:01;7.03;;;1.30;;
16113;SDS011;8161;-33.910;151.156;2022-08-19T06:49:30;9.75;;;1.95;;
16113;SDS011;8161;-33.910;151.156;2022-08-19T06:51:58;10.55;;;1.73;;
16113;SDS011;8161;-33.910;151.156;2022-08-19T06:54:26;9.30;;;1.40;;
16113;SDS011;8161;-33.910;151.156;2022-08-19T06:56:58;3.92;;;1.20;;
16113;SDS011;8161;-33.910;151.156;2022-08-19T06:59:30;9.07;;;2.03;;
16113;SDS011;8161;-33.910;151.156;2022-08-19T07:01:59;9.85;;;1.90;;
16113;SDS011;8161;-33.910;151.156;2022-08-19T07:04:30;8.48;;;2.40;;
16113;SDS011;8161;-33.910;151.156;2022-08-19T07:07:03;4.72;;;1.30;;
16113;SDS011;8161;-33.910;151.156;2022-08-19T07:09:37;3.88;;;1.30;;
16113;SDS011;8161;-33.910;151.156;2022-08-19T07:12:09;6.35;;;1.45;;
16113;SDS011;8161;-33.910;151.156;2022-08-19T07:14:41;4.03;;;0.95;;
16113;SDS011;8161;-33.910;151.156;2022-08-19T07:17:11;5.10;;;1.20;;
16113;SDS011;8161;-33.910;151.156;2022-08-19T07:19:39;2.97;;;1.00;;
16113;SDS011;8161;-33.910;151.156;2022-08-19T07:22:08;2.53;;;1.00;;
16113;SDS011;8161;-33.910;151.156;2022-08-19T07:24:36;4.32;;;1.13;;
16113;SDS011;8161;-33.910;151.156;2022-08-19T07:27:05;3.55;;;1.10;;
16113;SDS011;8161;-33.910;151.156;2022-08-19T07:29:34;2.50;;;0.80;;
16113;SDS011;8161;-33.910;151.156;2022-08-19T07:32:02;2.65;;;0.73;;
16113;SDS011;8161;-33.910;151.156;2022-08-19T07:34:31;2.78;;;0.90;;
16113;SDS011;8161;-33.910;151.156;2022-08-19T07:37:06;2.40;;;0.77;;
16113;SDS011;8161;-33.910;151.156;2022-08-19T07:39:34;5.13;;;0.90;;
16113;SDS011;8161;-33.910;151.156;2022-08-19T07:42:05;4.95;;;0.90;;
16113;SDS011;8161;-33.910;151.156;2022-08-19T07:44:35;2.70;;;0.70;;
16113;SDS011;8161;-33.910;151.156;2022-08-19T07:47:04;3.08;;;1.10;;
16113;SDS011;8161;-33.910;151.156;2022-08-19T07:49:32;6.22;;;1.40;;
16113;SDS011;8161;-33.910;151.156;2022-08-19T07:52:01;1.45;;;0.60;;
16113;SDS011;8161;-33.910;151.156;2022-08-19T07:54:33;2.00;;;1.00;;
16113;SDS011;8161;-33.910;151.156;2022-08-19T07:57:03;3.65;;;0.85;;
16113;SDS011;8161;-33.910;151.156;2022-08-19T07:59:34;1.95;;;0.77;;
16113;SDS011;8161;-33.910;151.156;2022-08-19T08:02:02;2.13;;;0.80;;
16113;SDS011;8161;-33.910;151.156;2022-08-19T08:04:30;1.75;;;0.70;;
16113;SDS011;8161;-33.910;151.156;2022-08-19T08:07:11;2.55;;;0.80;;
16113;SDS011;8161;-33.910;151.156;2022-08-19T08:09:52;2.55;;;0.77;;
16113;SDS011;8161;-33.910;151.156;2022-08-19T08:12:25;8.00;;;1.40;;
16113;SDS011;8161;-33.910;151.156;2022-08-19T08:15:00;3.25;;;1.23;;
16113;SDS011;8161;-33.910;151.156;2022-08-19T08:17:30;4.10;;;1.10;;
16113;SDS011;8161;-33.910;151.156;2022-08-19T08:19:58;1.27;;;0.93;;
16113;SDS011;8161;-33.910;151.156;2022-08-19T08:22:25;5.30;;;0.80;;
16113;SDS011;8161;-33.910;151.156;2022-08-19T08:25:07;3.13;;;1.00;;
16113;SDS011;8161;-33.910;151.156;2022-08-19T08:27:35;3.70;;;1.65;;
16113;SDS011;8161;-33.910;151.156;2022-08-19T08:30:13;2.50;;;1.00;;
16113;SDS011;8161;-33.910;151.156;2022-08-19T08:32:43;5.35;;;0.80;;
16113;SDS011;8161;-33.910;151.156;2022-08-19T08:35:12;2.60;;;1.00;;
16113;SDS011;8161;-33.910;151.156;2022-08-19T08:37:42;3.75;;;0.98;;
16113;SDS011;8161;-33.910;151.156;2022-08-19T08:40:18;4.38;;;1.55;;
16113;SDS011;8161;-33.910;151.156;2022-08-19T08:45:45;1.98;;;1.00;;
16113;SDS011;8161;-33.910;151.156;2022-08-19T08:48:20;2.53;;;1.33;;
16113;SDS011;8161;-33.910;151.156;2022-08-19T08:51:03;4.60;;;1.50;;
16113;SDS011;8161;-33.910;151.156;2022-08-19T08:53:35;3.58;;;1.10;;
16113;SDS011;8161;-33.910;151.156;2022-08-19T08:56:04;4.00;;;1.83;;
16113;SDS011;8161;-33.910;151.156;2022-08-19T09:01:24;5.30;;;2.10;;
16113;SDS011;8161;-33.910;151.156;2022-08-19T09:03:53;3.58;;;1.80;;
16113;SDS011;8161;-33.910;151.156;2022-08-19T09:17:14;4.10;;;1.35;;
16113;SDS011;8161;-33.910;151.156;2022-08-19T09:19:52;6.72;;;1.42;;
16113;SDS011;8161;-33.910;151.156;2022-08-19T09:22:22;2.65;;;1.40;;
16113;SDS011;8161;-33.910;151.156;2022-08-19T09:24:52;2.42;;;1.40;;
16113;SDS011;8161;-33.910;151.156;2022-08-19T09:27:20;3.72;;;1.70;;
16113;SDS011;8161;-33.910;151.156;2022-08-19T09:29:52;2.53;;;1.40;;
16113;SDS011;8161;-33.910;151.156;2022-08-19T09:32:20;2.88;;;1.48;;
16113;SDS011;8161;-33.910;151.156;2022-08-19T09:34:49;3.63;;;1.60;;
16113;SDS011;8161;-33.910;151.156;2022-08-19T09:37:20;1.95;;;0.82;;
16113;SDS011;8161;-33.910;151.156;2022-08-19T09:39:47;3.65;;;1.45;;
16113;SDS011;8161;-33.910;151.156;2022-08-19T09:42:15;3.33;;;1.45;;
16113;SDS011;8161;-33.910;151.156;2022-08-19T09:44:43;10.43;;;2.95;;
16113;SDS011;8161;-33.910;151.156;2022-08-19T09:47:11;6.85;;;2.90;;
16113;SDS011;8161;-33.910;151.156;2022-08-19T09:49:39;5.53;;;2.70;;
16113;SDS011;8161;-33.910;151.156;2022-08-19T09:52:08;6.75;;;2.67;;
16113;SDS011;8161;-33.910;151.156;2022-08-19T09:54:37;2.35;;;1.30;;
16113;SDS011;8161;-33.910;151.156;2022-08-19T09:57:05;9.25;;;1.75;;
16113;SDS011;8161;-33.910;151.156;2022-08-19T09:59:33;2.20;;;1.33;;
16113;SDS011;8161;-33.910;151.156;2022-08-19T10:02:01;3.42;;;1.40;;
16113;SDS011;8161;-33.910;151.156;2022-08-19T10:04:29;3.38;;;1.48;;
16113;SDS011;8161;-33.910;151.156;2022-08-19T10:07:10;2.97;;;1.50;;
16113;SDS011;8161;-33.910;151.156;2022-08-19T10:09:37;5.07;;;2.65;;
16113;SDS011;8161;-33.910;151.156;2022-08-19T10:12:06;4.25;;;2.13;;
16113;SDS011;8161;-33.910;151.156;2022-08-19T10:14:35;2.20;;;1.42;;
16113;SDS011;8161;-33.910;151.156;2022-08-19T10:17:02;4.35;;;1.50;;
16113;SDS011;8161;-33.910;151.156;2022-08-19T10:19:30;2.33;;;1.63;;
16113;SDS011;8161;-33.910;151.156;2022-08-19T10:22:05;1.98;;;1.38;;
16113;SDS011;8161;-33.910;151.156;2022-08-19T10:24:33;3.25;;;1.55;;
16113;SDS011;8161;-33.910;151.156;2022-08-19T10:27:01;1.60;;;1.13;;
16113;SDS011;8161;-33.910;151.156;2022-08-19T10:29:29;4.40;;;1.50;;
16113;SDS011;8161;-33.910;151.156;2022-08-19T10:32:04;3.25;;;1.42;;
16113;SDS011;8161;-33.910;151.156;2022-08-19T10:34:35;2.40;;;1.60;;
16113;SDS011;8161;-33.910;151.156;2022-08-19T10:37:04;5.90;;;2.13;;
16113;SDS011;8161;-33.910;151.156;2022-08-19T10:39:33;3.53;;;2.30;;
16113;SDS011;8161;-33.910;151.156;2022-08-19T10:42:05;17.25;;;4.30;;
16113;SDS011;8161;-33.910;151.156;2022-08-19T10:44:36;6.22;;;3.05;;
16113;SDS011;8161;-33.910;151.156;2022-08-19T10:47:03;6.20;;;2.88;;
16113;SDS011;8161;-33.910;151.156;2022-08-19T10:49:31;4.13;;;2.67;;
16113;SDS011;8161;-33.910;151.156;2022-08-19T10:52:18;5.32;;;3.13;;
16113;SDS011;8161;-33.910;151.156;2022-08-19T10:55:02;5.15;;;2.42;;
16113;SDS011;8161;-33.910;151.156;2022-08-19T10:57:45;4.35;;;2.60;;
16113;SDS011;8161;-33.910;151.156;2022-08-19T11:00:12;4.95;;;2.97;;
16113;SDS011;8161;-33.910;151.156;2022-08-19T11:02:40;4.78;;;2.47;;
16113;SDS011;8161;-33.910;151.156;2022-08-19T11:05:08;5.20;;;2.60;;
16113;SDS011;8161;-33.910;151.156;2022-08-19T11:07:37;4.65;;;2.80;;
16113;SDS011;8161;-33.910;151.156;2022-08-19T11:10:06;6.30;;;3.28;;
16113;SDS011;8161;-33.910;151.156;2022-08-19T11:12:38;6.45;;;3.28;;
16113;SDS011;8161;-33.910;151.156;2022-08-19T11:15:07;6.53;;;3.53;;
16113;SDS011;8161;-33.910;151.156;2022-08-19T11:17:38;7.28;;;3.20;;
16113;SDS011;8161;-33.910;151.156;2022-08-19T11:20:07;5.97;;;2.55;;
16113;SDS011;8161;-33.910;151.156;2022-08-19T11:22:34;4.47;;;2.50;;
16113;SDS011;8161;-33.910;151.156;2022-08-19T11:25:02;3.70;;;2.20;;
16113;SDS011;8161;-33.910;151.156;2022-08-19T11:27:30;5.35;;;2.33;;
16113;SDS011;8161;-33.910;151.156;2022-08-19T11:29:57;4.53;;;1.60;;
16113;SDS011;8161;-33.910;151.156;2022-08-19T11:32:25;7.30;;;2.22;;
16113;SDS011;8161;-33.910;151.156;2022-08-19T11:34:52;3.10;;;1.85;;
16113;SDS011;8161;-33.910;151.156;2022-08-19T11:37:20;2.60;;;1.50;;
16113;SDS011;8161;-33.910;151.156;2022-08-19T11:39:47;2.83;;;1.50;;
16113;SDS011;8161;-33.910;151.156;2022-08-19T11:42:14;3.15;;;1.80;;
16113;SDS011;8161;-33.910;151.156;2022-08-19T11:44:55;2.00;;;1.40;;
16113;SDS011;8161;-33.910;151.156;2022-08-19T11:47:23;3.47;;;1.80;;
16113;SDS011;8161;-33.910;151.156;2022-08-19T11:49:50;4.53;;;1.60;;
16113;SDS011;8161;-33.910;151.156;2022-08-19T11:52:18;3.00;;;1.85;;
16113;SDS011;8161;-33.910;151.156;2022-08-19T11:54:45;2.05;;;1.48;;
16113;SDS011;8161;-33.910;151.156;2022-08-19T11:57:13;3.08;;;1.90;;
16113;SDS011;8161;-33.910;151.156;2022-08-19T11:59:47;2.75;;;1.58;;
16113;SDS011;8161;-33.910;151.156;2022-08-19T12:02:15;2.92;;;1.73;;
16113;SDS011;8161;-33.910;151.156;2022-08-19T12:04:42;2.55;;;1.40;;
16113;SDS011;8161;-33.910;151.156;2022-08-19T12:07:10;3.22;;;1.73;;
16113;SDS011;8161;-33.910;151.156;2022-08-19T12:09:37;2.95;;;1.83;;
16113;SDS011;8161;-33.910;151.156;2022-08-19T12:12:05;3.72;;;1.60;;
16113;SDS011;8161;-33.910;151.156;2022-08-19T12:14:32;4.55;;;1.88;;
16113;SDS011;8161;-33.910;151.156;2022-08-19T12:17:00;3.35;;;1.92;;
16113;SDS011;8161;-33.910;151.156;2022-08-19T12:19:30;2.28;;;1.40;;
16113;SDS011;8161;-33.910;151.156;2022-08-19T12:21:59;3.75;;;1.70;;
16113;SDS011;8161;-33.910;151.156;2022-08-19T12:24:32;3.22;;;2.10;;
16113;SDS011;8161;-33.910;151.156;2022-08-19T12:27:00;4.70;;;2.15;;
16113;SDS011;8161;-33.910;151.156;2022-08-19T12:29:28;4.82;;;2.00;;
16113;SDS011;8161;-33.910;151.156;2022-08-19T12:31:57;5.10;;;1.75;;
16113;SDS011;8161;-33.910;151.156;2022-08-19T12:34:28;5.22;;;2.13;;
16113;SDS011;8161;-33.910;151.156;2022-08-19T12:37:00;2.67;;;1.67;;
16113;SDS011;8161;-33.910;151.156;2022-08-19T12:39:33;4.78;;;2.03;;
16113;SDS011;8161;-33.910;151.156;2022-08-19T12:42:02;5.13;;;2.60;;
16113;SDS011;8161;-33.910;151.156;2022-08-19T12:44:29;5.88;;;2.97;;
16113;SDS011;8161;-33.910;151.156;2022-08-19T12:46:57;5.70;;;2.83;;
16113;SDS011;8161;-33.910;151.156;2022-08-19T12:49:27;4.88;;;2.40;;
16113;SDS011;8161;-33.910;151.156;2022-08-19T12:51:54;4.72;;;3.10;;
16113;SDS011;8161;-33.910;151.156;2022-08-19T12:54:23;3.70;;;2.42;;
16113;SDS011;8161;-33.910;151.156;2022-08-19T12:56:50;4.00;;;2.22;;
16113;SDS011;8161;-33.910;151.156;2022-08-19T12:59:18;4.07;;;2.40;;
16113;SDS011;8161;-33.910;151.156;2022-08-19T13:01:48;6.30;;;2.72;;
16113;SDS011;8161;-33.910;151.156;2022-08-19T13:04:16;6.07;;;2.92;;
16113;SDS011;8161;-33.910;151.156;2022-08-19T13:06:43;7.22;;;2.50;;
16113;SDS011;8161;-33.910;151.156;2022-08-19T13:09:11;9.32;;;2.92;;
16113;SDS011;8161;-33.910;151.156;2022-08-19T13:11:39;4.90;;;2.22;;
16113;SDS011;8161;-33.910;151.156;2022-08-19T13:14:07;4.50;;;2.40;;
16113;SDS011;8161;-33.910;151.156;2022-08-19T13:16:35;6.53;;;2.88;;
16113;SDS011;8161;-33.910;151.156;2022-08-19T13:19:03;3.72;;;2.30;;
16113;SDS011;8161;-33.910;151.156;2022-08-19T13:21:30;7.43;;;2.20;;
16113;SDS011;8161;-33.910;151.156;2022-08-19T13:23:58;4.10;;;2.00;;
16113;SDS011;8161;-33.910;151.156;2022-08-19T13:26:25;3.20;;;1.60;;
16113;SDS011;8161;-33.910;151.156;2022-08-19T13:28:52;2.72;;;1.70;;
16113;SDS011;8161;-33.910;151.156;2022-08-19T13:31:34;2.10;;;1.60;;
16113;SDS011;8161;-33.910;151.156;2022-08-19T13:34:25;4.22;;;1.98;;
16113;SDS011;8161;-33.910;151.156;2022-08-19T13:36:59;4.47;;;2.33;;
16113;SDS011;8161;-33.910;151.156;2022-08-19T13:39:32;4.43;;;1.67;;
16113;SDS011;8161;-33.910;151.156;2022-08-19T13:42:00;7.38;;;3.20;;
16113;SDS011;8161;-33.910;151.156;2022-08-19T13:44:29;7.22;;;2.97;;
16113;SDS011;8161;-33.910;151.156;2022-08-19T13:47:01;4.93;;;1.85;;
16113;SDS011;8161;-33.910;151.156;2022-08-19T13:49:33;6.13;;;2.38;;
16113;SDS011;8161;-33.910;151.156;2022-08-19T13:52:02;5.90;;;2.00;;
16113;SDS011;8161;-33.910;151.156;2022-08-19T13:54:30;3.38;;;1.70;;
16113;SDS011;8161;-33.910;151.156;2022-08-19T13:56:58;5.00;;;2.33;;
16113;SDS011;8161;-33.910;151.156;2022-08-19T13:59:25;6.55;;;2.15;;
16113;SDS011;8161;-33.910;151.156;2022-08-19T14:01:52;7.65;;;2.30;;
16113;SDS011;8161;-33.910;151.156;2022-08-19T14:04:25;5.30;;;1.65;;
16113;SDS011;8161;-33.910;151.156;2022-08-19T14:06:52;4.38;;;1.58;;
16113;SDS011;8161;-33.910;151.156;2022-08-19T14:09:20;4.40;;;1.48;;
16113;SDS011;8161;-33.910;151.156;2022-08-19T14:11:47;2.83;;;0.93;;
16113;SDS011;8161;-33.910;151.156;2022-08-19T14:14:16;5.15;;;1.30;;
16113;SDS011;8161;-33.910;151.156;2022-08-19T14:16:43;3.28;;;1.48;;
16113;SDS011;8161;-33.910;151.156;2022-08-19T14:19:11;1.75;;;1.10;;
16113;SDS011;8161;-33.910;151.156;2022-08-19T14:21:38;3.42;;;1.38;;
16113;SDS011;8161;-33.910;151.156;2022-08-19T14:24:07;4.75;;;1.30;;
16113;SDS011;8161;-33.910;151.156;2022-08-19T14:26:34;1.90;;;1.00;;
16113;SDS011;8161;-33.910;151.156;2022-08-19T14:29:02;10.38;;;1.17;;
16113;SDS011;8161;-33.910;151.156;2022-08-19T14:31:29;3.50;;;1.35;;
16113;SDS011;8161;-33.910;151.156;2022-08-19T14:33:56;4.70;;;1.10;;
16113;SDS011;8161;-33.910;151.156;2022-08-19T14:36:24;2.58;;;1.27;;
16113;SDS011;8161;-33.910;151.156;2022-08-19T14:38:52;2.58;;;0.90;;
16113;SDS011;8161;-33.910;151.156;2022-08-19T14:41:20;3.92;;;1.00;;
16113;SDS011;8161;-33.910;151.156;2022-08-19T14:43:50;5.95;;;1.10;;
16113;SDS011;8161;-33.910;151.156;2022-08-19T14:46:20;4.68;;;1.42;;
16113;SDS011;8161;-33.910;151.156;2022-08-19T14:48:49;4.85;;;1.40;;
16113;SDS011;8161;-33.910;151.156;2022-08-19T14:51:17;3.25;;;1.17;;
16113;SDS011;8161;-33.910;151.156;2022-08-19T14:53:45;3.90;;;1.33;;
16113;SDS011;8161;-33.910;151.156;2022-08-19T14:56:17;4.15;;;1.30;;